createdAt,value
2022-11-14T00:02:33.587Z,11.60
2022-11-14T00:05:19.489Z,12.85
2022-11-14T00:10:51.483Z,11.85
2022-11-14T00:13:36.661Z,12.18
2022-11-14T00:16:21.992Z,12.38
2022-11-14T00:19:07.175Z,12.73
2022-11-14T00:21:53.467Z,12.50
2022-11-14T00:24:38.815Z,12.95
2022-11-14T00:27:24.722Z,11.65
2022-11-14T00:30:10.196Z,12.10
2022-11-14T00:32:55.213Z,13.43
2022-11-14T00:35:40.598Z,12.27
2022-11-14T00:38:26.019Z,13.52
2022-11-14T00:41:11.177Z,13.15
2022-11-14T00:43:56.667Z,12.20
2022-11-14T00:46:41.861Z,12.60
2022-11-14T00:49:27.196Z,12.57
2022-11-14T00:52:12.407Z,11.60
2022-11-14T00:54:57.910Z,12.45
2022-11-14T00:57:43.321Z,12.15
2022-11-14T01:00:28.707Z,13.10
2022-11-14T01:03:14.015Z,12.38
2022-11-14T01:06:04.995Z,13.90
2022-11-14T01:08:51.341Z,12.05
2022-11-14T01:11:36.982Z,12.55
2022-11-14T01:14:22.126Z,13.03
2022-11-14T01:17:07.532Z,13.37
2022-11-14T01:19:52.569Z,11.23
2022-11-14T01:22:37.709Z,10.43
2022-11-14T01:25:23.038Z,12.40
2022-11-14T01:28:11.461Z,13.23
2022-11-14T01:30:56.929Z,12.77
2022-11-14T01:33:42.822Z,12.85
2022-11-14T01:36:27.648Z,12.13
2022-11-14T01:39:12.920Z,12.02
2022-11-14T01:41:58.485Z,9.85
2022-11-14T01:44:52.356Z,10.30
2022-11-14T01:47:37.522Z,10.80
2022-11-14T01:50:22.813Z,11.98
2022-11-14T01:53:08.050Z,11.15
2022-11-14T01:55:58.152Z,11.53
2022-11-14T01:58:50.038Z,10.48
2022-11-14T02:01:39.335Z,10.85
2022-11-14T02:04:30.772Z,10.43
2022-11-14T02:07:17.538Z,10.05
2022-11-14T02:10:15.339Z,9.38
2022-11-14T02:13:00.426Z,9.50
2022-11-14T02:15:45.690Z,9.25
2022-11-14T02:18:31.181Z,9.30
2022-11-14T02:21:16.713Z,9.07
2022-11-14T02:24:02.152Z,8.73
2022-11-14T02:26:47.493Z,8.57
2022-11-14T02:29:34.704Z,8.27
2022-11-14T02:32:20.463Z,7.57
2022-11-14T02:35:06.036Z,8.43
2022-11-14T02:37:51.428Z,9.23
2022-11-14T02:40:36.851Z,9.07
2022-11-14T02:43:22.101Z,9.15
2022-11-14T02:46:07.543Z,10.30
2022-11-14T02:48:52.840Z,9.43
2022-11-14T02:51:38.363Z,10.30
2022-11-14T02:54:23.638Z,8.98
2022-11-14T02:57:08.997Z,9.88
2022-11-14T02:59:54.253Z,9.88
2022-11-14T03:02:39.571Z,8.60
2022-11-14T03:05:24.913Z,10.10
2022-11-14T03:08:10.190Z,8.45
2022-11-14T03:10:55.878Z,8.37
2022-11-14T03:13:41.027Z,9.07
2022-11-14T03:16:26.323Z,7.80
2022-11-14T03:19:11.785Z,8.48
2022-11-14T03:21:56.973Z,8.18
2022-11-14T03:24:42.441Z,7.63
2022-11-14T03:27:27.870Z,7.80
2022-11-14T03:30:14.654Z,6.85
2022-11-14T03:33:00.023Z,7.72
2022-11-14T03:35:45.417Z,8.27
2022-11-14T03:38:31.796Z,8.52
2022-11-14T03:41:17.603Z,7.65
2022-11-14T03:44:02.775Z,8.73
2022-11-14T03:46:48.247Z,8.65
2022-11-14T03:49:33.516Z,8.27
2022-11-14T03:52:18.919Z,10.20
2022-11-14T03:55:04.653Z,9.07
2022-11-14T03:57:49.828Z,9.77
2022-11-14T04:00:35.550Z,10.20
2022-11-14T04:03:20.407Z,9.53
2022-11-14T04:06:06.138Z,8.93
2022-11-14T04:08:51.954Z,8.57
2022-11-14T04:11:37.394Z,9.80
2022-11-14T04:14:22.429Z,9.40
2022-11-14T04:17:07.696Z,10.20
2022-11-14T04:19:53.145Z,9.60
2022-11-14T04:22:38.687Z,9.05
2022-11-14T04:25:23.704Z,9.23
2022-11-14T04:28:09.124Z,9.05
2022-11-14T04:30:54.865Z,9.75
2022-11-14T04:33:40.138Z,8.52
2022-11-14T04:36:25.305Z,9.23
2022-11-14T04:39:10.512Z,9.07
2022-11-14T04:41:55.914Z,8.50
2022-11-14T04:44:41.162Z,8.38
2022-11-14T04:47:26.531Z,7.93
2022-11-14T04:50:11.771Z,8.63
2022-11-14T04:52:56.978Z,8.17
2022-11-14T04:55:44.597Z,8.77
2022-11-14T04:58:29.816Z,8.70
2022-11-14T05:01:15.771Z,7.65
2022-11-14T05:04:01.033Z,7.80
2022-11-14T05:06:46.565Z,9.18
2022-11-14T05:09:31.865Z,8.40
2022-11-14T05:12:17.184Z,8.57
2022-11-14T05:15:02.908Z,8.23
2022-11-14T05:17:47.909Z,9.15
2022-11-14T05:20:33.262Z,8.45
2022-11-14T05:23:21.264Z,7.97
2022-11-14T05:26:08.494Z,7.70
2022-11-14T05:28:53.508Z,8.68
2022-11-14T05:31:39.315Z,9.18
2022-11-14T05:34:25.122Z,8.30
2022-11-14T05:37:10.682Z,8.50
2022-11-14T05:39:56.088Z,9.35
2022-11-14T05:42:41.405Z,8.98
2022-11-14T05:45:26.689Z,9.05
2022-11-14T05:48:11.953Z,9.02
2022-11-14T05:51:01.686Z,8.15
2022-11-14T05:53:47.069Z,8.02
2022-11-14T05:56:32.578Z,8.68
2022-11-14T05:59:17.971Z,8.63
2022-11-14T06:02:03.324Z,9.18
2022-11-14T06:04:48.669Z,8.20
2022-11-14T06:07:34.064Z,9.38
2022-11-14T06:10:19.362Z,8.90
2022-11-14T06:13:04.679Z,9.27
2022-11-14T06:15:51.005Z,8.80
2022-11-14T06:18:37.137Z,8.48
2022-11-14T06:21:24.429Z,8.10
2022-11-14T06:24:09.466Z,8.50
2022-11-14T06:26:54.758Z,7.95
2022-11-14T06:29:39.889Z,8.20
2022-11-14T06:32:25.217Z,8.10
2022-11-14T06:35:10.431Z,7.90
2022-11-14T06:37:55.742Z,7.90
2022-11-14T06:40:41.025Z,7.85
2022-11-14T06:43:26.540Z,7.72
2022-11-14T06:46:14.878Z,7.57
2022-11-14T06:49:00.059Z,7.45
2022-11-14T06:51:45.309Z,8.30
2022-11-14T06:54:30.664Z,7.18
2022-11-14T06:57:15.716Z,8.23
2022-11-14T07:00:01.505Z,7.30
2022-11-14T07:02:47.418Z,7.15
2022-11-14T07:05:32.914Z,7.10
2022-11-14T07:08:20.978Z,8.07
2022-11-14T07:11:12.399Z,6.93
2022-11-14T07:14:01.206Z,7.13
2022-11-14T07:16:46.930Z,7.20
2022-11-14T07:19:31.934Z,7.63
2022-11-14T07:22:17.122Z,6.97
2022-11-14T07:25:02.467Z,6.38
2022-11-14T07:27:47.627Z,6.23
2022-11-14T07:30:35.976Z,6.83
2022-11-14T07:33:21.520Z,6.80
2022-11-14T07:36:07.395Z,7.75
2022-11-14T07:38:52.688Z,7.68
2022-11-14T07:41:38.044Z,7.25
2022-11-14T07:44:23.372Z,6.97
2022-11-14T07:47:08.656Z,7.85
2022-11-14T07:49:53.888Z,6.97
2022-11-14T07:52:39.061Z,6.70
2022-11-14T07:55:25.067Z,7.15
2022-11-14T07:58:10.256Z,6.72
2022-11-14T08:00:55.706Z,7.35
2022-11-14T08:03:45.286Z,7.55
2022-11-14T08:06:31.315Z,7.65
2022-11-14T08:09:16.572Z,9.00
2022-11-14T08:12:01.920Z,8.57
2022-11-14T08:14:47.153Z,8.85
2022-11-14T08:17:32.430Z,8.17
2022-11-14T08:20:17.800Z,7.95
2022-11-14T08:23:07.029Z,9.50
2022-11-14T08:25:52.319Z,9.18
2022-11-14T08:28:37.388Z,9.18
2022-11-14T08:31:23.876Z,9.45
2022-11-14T08:36:57.072Z,9.38
2022-11-14T08:39:42.573Z,9.40
2022-11-14T08:42:28.788Z,9.57
2022-11-14T08:45:14.139Z,9.82
2022-11-14T08:47:59.500Z,9.73
2022-11-14T08:50:44.773Z,10.15
2022-11-14T08:53:30.811Z,9.35
2022-11-14T08:56:15.748Z,10.02
2022-11-14T08:59:03.933Z,8.55
2022-11-14T09:01:49.446Z,8.80
2022-11-14T09:04:34.951Z,9.23
2022-11-14T09:07:20.238Z,9.43
2022-11-14T09:10:06.441Z,9.60
2022-11-14T09:15:47.242Z,8.93
2022-11-14T09:18:32.882Z,9.82
2022-11-14T09:21:18.371Z,9.13
2022-11-14T09:24:03.831Z,9.45
2022-11-14T09:26:56.434Z,8.43
2022-11-14T09:29:42.585Z,7.90
2022-11-14T09:32:28.384Z,9.32
2022-11-14T09:35:14.548Z,7.45
2022-11-14T09:38:05.859Z,8.35
2022-11-14T09:41:09.340Z,7.85
2022-11-14T09:44:22.278Z,9.27
2022-11-14T09:47:20.449Z,7.43
2022-11-14T09:50:08.589Z,7.47
2022-11-14T09:52:59.319Z,8.18
2022-11-14T09:55:44.354Z,7.97
2022-11-14T09:58:29.784Z,8.30
2022-11-14T10:01:25.676Z,8.38
2022-11-14T10:04:14.059Z,8.80
2022-11-14T10:07:20.903Z,7.95
2022-11-14T10:10:22.973Z,7.60
2022-11-14T10:13:16.799Z,7.45
2022-11-14T10:16:14.085Z,7.22
2022-11-14T10:19:13.737Z,7.38
2022-11-14T10:22:18.338Z,7.35
2022-11-14T10:25:38.331Z,7.30
2022-11-14T10:29:05.003Z,8.43
2022-11-14T10:32:02.944Z,9.10
2022-11-14T10:35:00.423Z,8.30
2022-11-14T10:38:08.241Z,8.30
2022-11-14T10:40:58.167Z,7.68
2022-11-14T10:43:51.785Z,8.63
2022-11-14T10:46:45.119Z,9.05
2022-11-14T10:49:36.122Z,7.85
2022-11-14T10:52:26.783Z,8.10
2022-11-14T10:55:18.379Z,7.78
2022-11-14T10:58:13.671Z,7.70
2022-11-14T11:01:37.007Z,7.60
2022-11-14T11:04:25.585Z,7.82
2022-11-14T11:07:30.913Z,7.90
2022-11-14T11:10:42.764Z,6.80
2022-11-14T11:13:34.898Z,6.68
2022-11-14T11:16:23.342Z,6.65
2022-11-14T11:19:23.742Z,6.38
2022-11-14T11:22:29.668Z,6.80
2022-11-14T11:25:29.241Z,6.38
2022-11-14T11:28:17.416Z,5.65
2022-11-14T11:31:07.484Z,5.97
2022-11-14T11:33:52.785Z,6.13
2022-11-14T11:36:44.044Z,5.90
2022-11-14T11:39:33.320Z,5.70
2022-11-14T11:42:25.886Z,6.15
2022-11-14T11:45:18.815Z,5.43
2022-11-14T11:48:18.385Z,5.50
2022-11-14T11:51:05.851Z,5.50
2022-11-14T11:54:00.442Z,5.07
2022-11-14T11:56:52.051Z,5.45
2022-11-14T11:59:51.811Z,5.32
2022-11-14T12:02:49.294Z,5.78
2022-11-14T12:05:38.068Z,5.45
2022-11-14T12:08:46.568Z,5.78
2022-11-14T12:11:36.408Z,5.03
2022-11-14T12:14:45.822Z,5.25
2022-11-14T12:17:30.814Z,5.55
2022-11-14T12:20:37.418Z,5.15
2022-11-14T12:23:31.915Z,5.32
2022-11-14T12:26:35.018Z,5.57
2022-11-14T12:29:25.411Z,5.03
2022-11-14T12:32:16.124Z,4.90
2022-11-14T12:35:08.067Z,5.55
2022-11-14T12:37:56.138Z,4.68
2022-11-14T12:40:49.356Z,5.18
2022-11-14T12:43:37.930Z,5.47
2022-11-14T12:46:23.492Z,4.97
2022-11-14T12:49:46.208Z,5.13
2022-11-14T12:52:40.345Z,6.00
2022-11-14T12:55:25.436Z,5.75
2022-11-14T12:58:17.182Z,5.90
2022-11-14T13:01:20.903Z,5.40
2022-11-14T13:04:12.375Z,9.70
2022-11-14T13:07:20.120Z,7.47
2022-11-14T13:10:30.396Z,6.95
2022-11-14T13:13:36.019Z,6.80
2022-11-14T13:16:48.310Z,7.07
2022-11-14T13:19:52.114Z,7.22
2022-11-14T13:22:41.750Z,7.70
2022-11-14T13:25:27.134Z,8.10
2022-11-14T13:28:37.168Z,6.60
2022-11-14T13:31:23.532Z,6.78
2022-11-14T13:34:28.630Z,6.03
2022-11-14T13:37:43.214Z,6.55
2022-11-14T13:40:33.299Z,6.13
2022-11-14T13:43:51.894Z,6.03
2022-11-14T13:47:01.845Z,5.60
2022-11-14T13:50:02.318Z,5.38
2022-11-14T13:52:48.878Z,5.32
2022-11-14T13:56:04.689Z,5.63
2022-11-14T13:58:56.053Z,5.93
2022-11-14T14:02:02.425Z,6.03
2022-11-14T14:05:10.729Z,6.30
2022-11-14T14:08:05.273Z,5.75
2022-11-14T14:11:04.808Z,5.63
2022-11-14T14:14:17.687Z,5.88
2022-11-14T14:17:11.931Z,5.18
2022-11-14T14:20:31.199Z,4.20
2022-11-14T14:24:01.642Z,3.83
2022-11-14T14:26:46.910Z,3.20
2022-11-14T14:30:01.390Z,4.60
2022-11-14T14:33:08.822Z,4.30
2022-11-14T14:35:54.125Z,3.75
2022-11-14T14:38:39.038Z,3.95
2022-11-14T14:41:24.630Z,3.60
2022-11-14T14:44:21.784Z,3.88
2022-11-14T14:47:39.338Z,3.60
2022-11-14T14:50:30.003Z,5.75
2022-11-14T14:53:27.124Z,3.92
2022-11-14T14:56:21.539Z,3.85
2022-11-14T14:59:18.533Z,3.55
2022-11-14T15:02:03.915Z,4.45
2022-11-14T15:04:49.631Z,4.15
2022-11-14T15:07:38.846Z,4.07
2022-11-14T15:10:29.502Z,3.88
2022-11-14T15:13:17.788Z,3.45
2022-11-14T15:16:05.622Z,3.72
2022-11-14T15:18:52.499Z,4.45
2022-11-14T15:21:37.761Z,3.60
2022-11-14T15:24:23.658Z,3.40
2022-11-14T15:27:13.363Z,4.00
2022-11-14T15:30:02.083Z,3.33
2022-11-14T15:32:55.121Z,3.95
2022-11-14T15:35:40.720Z,5.18
2022-11-14T15:41:33.206Z,3.90
2022-11-14T15:44:35.664Z,4.07
2022-11-14T15:47:40.294Z,4.03
2022-11-14T15:50:32.416Z,4.28
2022-11-14T15:53:20.654Z,4.85
2022-11-14T15:56:05.947Z,4.45
2022-11-14T15:58:51.644Z,4.07
2022-11-14T16:01:37.151Z,4.43
2022-11-14T16:04:28.439Z,4.80
2022-11-14T16:07:15.552Z,5.00
2022-11-14T16:10:00.792Z,4.55
2022-11-14T16:12:52.033Z,4.03
2022-11-14T16:15:38.441Z,4.38
2022-11-14T16:18:23.625Z,3.55
2022-11-14T16:21:14.635Z,4.50
2022-11-14T16:24:00.058Z,4.80
2022-11-14T16:26:45.754Z,5.68
2022-11-14T16:29:30.855Z,9.27
2022-11-14T16:32:16.265Z,9.95
2022-11-14T16:35:01.633Z,9.10
2022-11-14T16:37:48.121Z,8.00
2022-11-14T16:40:33.252Z,5.35
2022-11-14T16:43:18.682Z,5.50
2022-11-14T16:46:05.831Z,4.63
2022-11-14T16:48:51.629Z,5.10
2022-11-14T16:51:52.225Z,5.63
2022-11-14T16:54:37.913Z,5.57
2022-11-14T16:57:24.132Z,6.28
2022-11-14T17:00:12.404Z,6.72
2022-11-14T17:02:57.444Z,7.38
2022-11-14T17:05:47.688Z,8.98
2022-11-14T17:08:33.073Z,8.25
2022-11-14T17:11:18.248Z,6.80
2022-11-14T17:14:03.678Z,8.38
2022-11-14T17:16:49.023Z,6.70
2022-11-14T17:19:34.391Z,7.13
2022-11-14T17:22:22.639Z,8.10
2022-11-14T17:25:07.884Z,7.93
2022-11-14T17:27:52.845Z,16.95
2022-11-14T17:30:42.335Z,14.85
2022-11-14T17:33:27.780Z,13.50
2022-11-14T17:36:14.036Z,13.13
2022-11-14T17:38:59.821Z,9.27
2022-11-14T17:41:45.274Z,7.30
2022-11-14T17:44:30.294Z,8.13
2022-11-14T17:47:15.634Z,7.13
2022-11-14T17:50:00.883Z,7.32
2022-11-14T17:52:46.227Z,6.63
2022-11-14T17:55:31.490Z,8.33
2022-11-14T17:58:16.849Z,8.15
2022-11-14T18:01:02.094Z,8.17
2022-11-14T18:03:47.961Z,8.00
2022-11-14T18:06:33.947Z,8.30
2022-11-14T18:09:19.079Z,7.75
2022-11-14T18:12:04.335Z,7.43
2022-11-14T18:14:49.356Z,7.53
2022-11-14T18:17:34.890Z,6.80
2022-11-14T18:20:19.896Z,6.50
2022-11-14T18:23:05.387Z,8.15
2022-11-14T18:25:50.956Z,8.23
2022-11-14T18:28:36.227Z,7.43
2022-11-14T18:31:21.713Z,10.68
2022-11-14T18:34:07.263Z,7.85
2022-11-14T18:36:52.171Z,7.85
2022-11-14T18:39:37.553Z,7.20
2022-11-14T18:42:22.870Z,8.32
2022-11-14T18:45:08.642Z,8.20
2022-11-14T18:47:54.098Z,7.93
2022-11-14T18:50:39.667Z,15.20
2022-11-14T18:53:24.649Z,11.38
2022-11-14T18:56:15.525Z,10.33
2022-11-14T18:59:00.614Z,10.27
2022-11-14T19:01:46.158Z,9.27
2022-11-14T19:04:31.268Z,7.07
2022-11-14T19:07:16.538Z,7.22
2022-11-14T19:10:01.644Z,7.18
2022-11-14T19:12:48.563Z,6.73
2022-11-14T19:15:33.664Z,9.73
2022-11-14T19:18:19.187Z,7.13
2022-11-14T19:21:06.057Z,7.00
2022-11-14T19:23:51.383Z,8.57
2022-11-14T19:26:36.780Z,7.25
2022-11-14T19:29:22.079Z,7.80
2022-11-14T19:32:08.148Z,7.20
2022-11-14T19:34:53.274Z,7.60
2022-11-14T19:37:38.351Z,9.17
2022-11-14T19:40:23.676Z,7.93
2022-11-14T19:43:11.254Z,8.50
2022-11-14T19:46:00.880Z,9.98
2022-11-14T19:48:46.398Z,8.80
2022-11-14T19:51:32.805Z,8.52
2022-11-14T19:54:18.101Z,8.57
2022-11-14T19:57:03.420Z,8.23
2022-11-14T19:59:48.725Z,8.38
2022-11-14T20:02:34.060Z,7.40
2022-11-14T20:05:19.469Z,6.78
2022-11-14T20:08:05.028Z,7.20
2022-11-14T20:11:01.677Z,5.25
2022-11-14T20:13:47.739Z,4.10
2022-11-14T20:16:34.620Z,4.82
2022-11-14T20:19:19.670Z,5.38
2022-11-14T20:22:06.545Z,6.97
2022-11-14T20:24:52.132Z,5.18
2022-11-14T20:27:37.315Z,4.97
2022-11-14T20:30:22.542Z,5.10
2022-11-14T20:33:08.859Z,4.70
2022-11-14T20:35:54.330Z,5.03
2022-11-14T20:38:39.715Z,4.35
2022-11-14T20:41:25.350Z,4.57
2022-11-14T20:44:10.273Z,4.97
2022-11-14T20:46:56.937Z,4.40
2022-11-14T20:49:43.425Z,4.53
2022-11-14T20:52:28.794Z,4.65
2022-11-14T20:55:15.678Z,4.32
2022-11-14T20:58:00.943Z,4.55
2022-11-14T21:00:46.322Z,4.03
2022-11-14T21:03:31.936Z,4.53
2022-11-14T21:06:17.524Z,4.60
2022-11-14T21:09:02.911Z,4.25
2022-11-14T21:11:48.059Z,4.23
2022-11-14T21:14:34.165Z,4.43
2022-11-14T21:17:19.229Z,6.28
2022-11-14T21:20:04.906Z,7.28
2022-11-14T21:22:49.948Z,6.25
2022-11-14T21:25:35.657Z,6.27
2022-11-14T21:28:20.604Z,5.28
2022-11-14T21:31:24.387Z,5.38
2022-11-14T21:34:15.352Z,5.95
2022-11-14T21:37:00.671Z,5.22
2022-11-14T21:39:48.179Z,5.10
2022-11-14T21:42:33.310Z,5.22
2022-11-14T21:45:18.809Z,8.05
2022-11-14T21:48:04.332Z,8.97
2022-11-14T21:50:50.168Z,6.82
2022-11-14T21:53:35.808Z,4.90
2022-11-14T21:56:29.696Z,4.80
2022-11-14T21:59:18.777Z,5.45
2022-11-14T22:02:22.838Z,5.15
2022-11-14T22:05:08.187Z,6.35
2022-11-14T22:07:53.309Z,6.13
2022-11-14T22:10:38.667Z,5.90
2022-11-14T22:13:24.050Z,5.68
2022-11-14T22:16:11.261Z,8.43
2022-11-14T22:19:02.003Z,7.47
2022-11-14T22:21:49.989Z,7.50
2022-11-14T22:24:35.319Z,7.55
2022-11-14T22:27:20.593Z,7.68
2022-11-14T22:30:06.531Z,6.00
2022-11-14T22:32:51.738Z,7.35
2022-11-14T22:35:37.130Z,6.90
2022-11-14T22:38:22.318Z,6.67
2022-11-14T22:41:11.422Z,8.47
2022-11-14T22:43:57.706Z,6.75
2022-11-14T22:46:42.758Z,7.88
2022-11-14T22:49:27.991Z,7.83
2022-11-14T22:52:13.421Z,9.13
2022-11-14T22:54:58.804Z,7.70
2022-11-14T22:57:44.103Z,9.73
2022-11-14T23:00:29.295Z,11.80
2022-11-14T23:03:20.559Z,10.95
2022-11-14T23:06:08.144Z,12.82
2022-11-14T23:08:54.266Z,12.30
2022-11-14T23:11:39.759Z,13.93
2022-11-14T23:14:24.930Z,12.60
2022-11-14T23:17:10.094Z,11.43
2022-11-14T23:19:55.359Z,8.98
2022-11-14T23:22:41.027Z,9.27
2022-11-14T23:25:26.533Z,6.50
2022-11-14T23:28:11.757Z,4.75
2022-11-14T23:30:58.554Z,3.83
2022-11-14T23:33:43.689Z,4.13
2022-11-14T23:36:29.096Z,3.30
2022-11-14T23:39:14.341Z,3.40
2022-11-14T23:41:59.642Z,3.17
2022-11-14T23:44:44.766Z,3.70
2022-11-14T23:47:30.056Z,3.28
2022-11-14T23:50:15.466Z,2.97
2022-11-14T23:53:01.205Z,3.05
2022-11-14T23:56:00.818Z,3.40
2022-11-14T23:58:46.430Z,3.35
